Terminal Aerodrome Forecast
Issued by NWS Upton, NY

Home | Current Version | Previous Version | Text Only | Print | Product List | Glossary On
Versions: 1 2 3 4 5 6 7 8 9 10 11 12 13 14 15 16 17 18 19 20 21 22 23 24 25
000
FTUS41 KOKX 222300
TAFJFK
TAF
KJFK 222330Z 2300/2406 19015KT P6SM FEW050 SCT250
     FM230200 20010KT P6SM FEW250
     FM230400 22006KT P6SM FEW250
      TEMPO 2309/2311 5SM BR
     FM231300 22011KT P6SM FEW050
     FM231600 18012KT P6SM SCT050 BKN250
     FM231900 18016KT P6SM SCT050 BKN250 PROB30 2323/2402 5SM TSRA
      BKN050CB
     FM240200 20009KT P6SM SCT050 BKN250 PROB30 2402/2406 5SM TSRA
      BKN050CB=

USA.gov is the U.S. government's official web portal to all federal, state and local government web resources and services.